Weather at Ajaccio-Napoléon Bonaparte Airport

Public forecast

Using degrees Celsius for public forecast. Weather courtesy of forecast.io.

Current aviation weather report (METAR) for Ajaccio-Napoléon Bonaparte Airport

Report is more than 6 hours old.

2022/11/14 15:30 (retrieved 2 years ago)

LFKJ 141530Z AUTO 11002KT 9999 SCT068 BKN080 BKN170 18/11 Q1020 TEMPO 24015G35KT 2000 +TSRA BKN030CB

Aviation forecast (TAF) for Ajaccio-Napoléon Bonaparte Airport

Forecast is more than 12 hours old.

2023/02/22 21:21 (retrieved 1 year ago)

TAF LFKJ 222000Z 2221/2321 05006KT 9999 BKN018 BKN100 TEMPO 2221/2306 BKN012 BKN025 BECMG 2310/2312 24008KT BECMG 2318/2321 05005KT CAVOK